createdAt,value
2018-06-13T00:02:01.284Z,7.37
2018-06-13T00:04:31.097Z,7.37
2018-06-13T00:06:59.225Z,6.97
2018-06-13T00:09:30.148Z,6.37
2018-06-13T00:11:57.794Z,6.87
2018-06-13T00:14:26.460Z,6.70
2018-06-13T00:17:10.085Z,7.10
2018-06-13T00:19:43.115Z,7.37
2018-06-13T00:22:14.589Z,6.67
2018-06-13T00:24:42.238Z,7.33
2018-06-13T00:27:12.541Z,8.07
2018-06-13T00:29:42.047Z,7.53
2018-06-13T00:32:12.116Z,7.10
2018-06-13T00:34:43.006Z,9.43
2018-06-13T00:37:10.552Z,8.80
2018-06-13T00:39:42.400Z,8.10
2018-06-13T00:42:15.068Z,7.57
2018-06-13T00:44:46.145Z,6.80
2018-06-13T00:47:13.712Z,7.70
2018-06-13T00:49:41.325Z,7.20
2018-06-13T00:52:09.322Z,8.23
2018-06-13T00:54:37.660Z,8.33
2018-06-13T00:57:05.342Z,7.23
2018-06-13T00:59:33.442Z,8.27
2018-06-13T01:02:01.286Z,7.90
2018-06-13T01:04:29.605Z,7.30
2018-06-13T01:06:57.453Z,8.40
2018-06-13T01:09:24.904Z,8.40
2018-06-13T01:11:52.582Z,7.63
2018-06-13T01:14:21.569Z,8.57
2018-06-13T01:16:49.298Z,8.93
2018-06-13T01:19:16.780Z,8.60
2018-06-13T01:21:44.431Z,8.30
2018-06-13T01:24:11.978Z,9.00
2018-06-13T01:26:39.689Z,8.57
2018-06-13T01:29:07.199Z,7.57
2018-06-13T01:31:35.559Z,8.10
2018-06-13T01:34:03.171Z,8.60
2018-06-13T01:36:31.072Z,7.90
2018-06-13T01:38:58.965Z,8.40
2018-06-13T01:41:27.399Z,9.13
2018-06-13T01:43:55.026Z,9.00
2018-06-13T01:46:23.596Z,8.57
2018-06-13T01:48:51.752Z,8.97
2018-06-13T01:51:19.318Z,8.90
2018-06-13T01:53:46.743Z,9.20
2018-06-13T01:56:15.238Z,10.07
2018-06-13T01:58:43.340Z,9.50
2018-06-13T02:01:10.789Z,11.30
2018-06-13T02:03:39.253Z,11.10
2018-06-13T02:06:06.938Z,10.20
2018-06-13T02:08:35.517Z,10.20
2018-06-13T02:11:03.337Z,11.00
2018-06-13T02:13:31.553Z,9.30
2018-06-13T02:15:59.269Z,9.60
2018-06-13T02:18:26.829Z,9.80
2018-06-13T02:20:54.460Z,10.13
2018-06-13T02:23:21.922Z,10.33
2018-06-13T02:25:49.555Z,11.53
2018-06-13T02:28:17.214Z,10.50
2018-06-13T02:30:45.422Z,10.30
2018-06-13T02:33:13.259Z,9.57
2018-06-13T02:35:41.729Z,10.20
2018-06-13T02:38:09.291Z,9.80
2018-06-13T02:40:36.766Z,11.10
2018-06-13T02:43:04.399Z,12.20
2018-06-13T02:45:31.912Z,12.30
2018-06-13T02:47:59.441Z,10.93
2018-06-13T02:50:28.530Z,10.57
2018-06-13T03:36:37.590Z,8.03
2018-06-13T03:39:07.639Z,8.70
2018-06-13T03:41:36.185Z,8.57
2018-06-13T03:44:04.977Z,8.00
2018-06-13T03:46:32.514Z,7.93
2018-06-13T03:49:00.041Z,7.60
2018-06-13T03:51:27.854Z,6.50
2018-06-13T03:53:56.066Z,7.47
2018-06-13T03:56:23.701Z,6.77
2018-06-13T03:58:51.241Z,6.53
2018-06-13T04:01:19.580Z,6.93
2018-06-13T04:03:47.127Z,6.00
2018-06-13T04:06:15.575Z,6.43
2018-06-13T04:08:43.138Z,6.80
2018-06-13T04:11:12.428Z,5.30
2018-06-13T04:13:40.104Z,6.27
2018-06-13T04:16:07.694Z,5.20
2018-06-13T04:18:37.363Z,5.93
2018-06-13T04:21:06.146Z,5.27
2018-06-13T04:23:34.168Z,5.00
2018-06-13T04:26:09.694Z,6.57
2018-06-13T04:28:38.484Z,5.60
2018-06-13T04:31:07.344Z,5.10
2018-06-13T04:33:34.904Z,6.10
2018-06-13T04:45:54.201Z,5.43
2018-06-13T04:48:21.771Z,5.27
2018-06-13T04:50:49.758Z,5.53
2018-06-13T04:53:17.170Z,5.40
2018-06-13T04:55:44.659Z,4.53
2018-06-13T04:58:12.872Z,5.17
2018-06-13T05:00:40.711Z,4.70
2018-06-13T05:03:09.013Z,4.20
2018-06-13T05:05:37.527Z,4.57
2018-06-13T05:08:05.892Z,4.30
2018-06-13T05:10:35.213Z,4.40
2018-06-13T05:13:02.784Z,3.90
2018-06-13T05:15:31.661Z,4.57
2018-06-13T05:18:00.212Z,5.67
2018-06-13T05:20:30.502Z,4.60
2018-06-13T05:22:59.004Z,4.37
2018-06-13T05:25:27.274Z,6.10
2018-06-13T05:27:54.827Z,4.90
2018-06-13T05:30:22.478Z,4.40
2018-06-13T05:42:35.632Z,4.60
2018-06-13T05:45:03.299Z,6.57
2018-06-13T05:47:31.486Z,5.43
2018-06-13T05:49:59.197Z,3.50
2018-06-13T05:52:26.740Z,4.67
2018-06-13T05:54:54.809Z,5.43
2018-06-13T05:57:22.408Z,4.97
2018-06-13T05:59:50.785Z,4.73
2018-06-13T06:02:19.130Z,5.77
2018-06-13T06:04:47.310Z,4.20
2018-06-13T06:07:14.802Z,3.90
2018-06-13T06:09:42.430Z,4.73
2018-06-13T06:12:10.004Z,4.50
2018-06-13T06:14:38.272Z,4.90
2018-06-13T06:17:07.317Z,4.67
2018-06-13T06:19:35.186Z,4.80
2018-06-13T06:22:04.005Z,5.37
2018-06-13T06:24:31.680Z,5.40
2018-06-13T06:26:59.151Z,5.73
2018-06-13T06:29:28.270Z,5.67
2018-06-13T06:31:55.746Z,5.20
2018-06-13T06:34:23.265Z,5.00
2018-06-13T06:36:51.183Z,5.20
2018-06-13T06:39:18.801Z,3.80
2018-06-13T06:41:46.893Z,3.93
2018-06-13T06:44:15.288Z,3.83
2018-06-13T06:46:43.236Z,4.30
2018-06-13T06:59:01.901Z,4.37
2018-06-13T07:01:29.712Z,3.80
2018-06-13T07:03:58.149Z,3.50
2018-06-13T07:06:25.678Z,4.27
2018-06-13T07:08:53.171Z,4.10
2018-06-13T07:11:21.904Z,3.80
2018-06-13T07:13:50.609Z,4.50
2018-06-13T07:16:18.163Z,3.53
2018-06-13T07:18:45.714Z,4.03
2018-06-13T07:21:14.851Z,4.30
2018-06-13T07:23:43.941Z,3.60
2018-06-13T07:26:11.483Z,4.23
2018-06-13T07:28:39.584Z,3.73
2018-06-13T07:31:07.831Z,3.73
2018-06-13T07:33:36.519Z,3.90
2018-06-13T07:36:04.583Z,3.63
2018-06-13T07:38:32.148Z,3.33
2018-06-13T07:40:59.730Z,3.80
2018-06-13T07:53:17.270Z,3.50
2018-06-13T07:55:45.441Z,3.20
2018-06-13T07:58:13.041Z,3.20
2018-06-13T08:00:41.001Z,3.30
2018-06-13T08:03:08.530Z,2.90
2018-06-13T08:05:36.678Z,2.80
2018-06-13T08:08:05.510Z,3.03
2018-06-13T08:10:33.003Z,3.20
2018-06-13T08:13:01.521Z,3.50
2018-06-13T08:15:29.011Z,3.60
2018-06-13T08:17:57.513Z,3.43
2018-06-13T08:20:25.648Z,3.47
2018-06-13T08:22:54.539Z,3.10
2018-06-13T08:25:23.054Z,3.67
2018-06-13T08:27:50.881Z,3.57
2018-06-13T08:30:19.045Z,3.73
2018-06-13T08:32:47.137Z,3.90
2018-06-13T08:35:15.319Z,3.93
2018-06-13T08:37:42.980Z,3.67
2018-06-13T08:40:10.633Z,3.93
2018-06-13T08:42:38.165Z,3.50
2018-06-13T08:45:06.381Z,3.60
2018-06-13T08:47:34.096Z,3.50
2018-06-13T08:50:03.364Z,4.37
2018-06-13T08:52:31.002Z,3.83
2018-06-13T08:55:00.588Z,3.80
2018-06-13T08:57:28.668Z,3.70
2018-06-13T08:59:56.426Z,4.40
2018-06-13T09:02:24.289Z,4.33
2018-06-13T09:04:51.894Z,3.17
2018-06-13T09:07:20.429Z,3.30
2018-06-13T09:09:48.645Z,4.10
2018-06-13T09:12:17.409Z,5.80
2018-06-13T09:14:46.470Z,4.07
2018-06-13T09:17:13.926Z,3.30
2018-06-13T09:19:41.581Z,3.70
2018-06-13T09:22:10.405Z,3.80
2018-06-13T09:24:38.579Z,3.53
2018-06-13T09:27:07.237Z,3.50
2018-06-13T09:29:34.811Z,3.33
2018-06-13T09:32:02.996Z,3.67
2018-06-13T09:44:15.430Z,4.37
2018-06-13T09:46:48.917Z,4.10
2018-06-13T09:49:11.397Z,4.13
2018-06-13T09:51:39.133Z,3.10
2018-06-13T09:54:07.444Z,3.30
2018-06-13T09:56:35.007Z,2.90
2018-06-13T09:59:08.474Z,2.97
2018-06-13T10:01:41.838Z,2.73
2018-06-13T10:04:11.418Z,2.90
2018-06-13T10:06:39.744Z,3.03
2018-06-13T10:09:09.779Z,3.30
2018-06-13T10:11:37.304Z,5.93
2018-06-13T10:14:05.332Z,3.60
2018-06-13T10:16:33.980Z,3.70
2018-06-13T10:19:02.977Z,4.00
2018-06-13T10:21:34.036Z,4.03
2018-06-13T10:24:02.817Z,3.60
2018-06-13T10:26:30.303Z,3.23
2018-06-13T10:28:58.183Z,3.90
2018-06-13T10:31:26.404Z,4.47
2018-06-13T10:33:54.749Z,4.40
2018-06-13T10:36:22.828Z,3.60
2018-06-13T10:38:50.375Z,4.30
2018-06-13T10:41:19.150Z,3.60
2018-06-13T10:43:46.771Z,3.20
2018-06-13T10:46:15.112Z,3.17
2018-06-13T10:48:43.105Z,3.30
2018-06-13T10:51:10.655Z,3.80
2018-06-13T10:53:38.849Z,3.77
2018-06-13T10:56:06.481Z,3.63
2018-06-13T10:58:35.114Z,3.70
2018-06-13T11:01:02.884Z,3.80
2018-06-13T11:03:31.075Z,2.97
2018-06-13T11:06:01.421Z,4.47
2018-06-13T11:08:29.008Z,3.70
2018-06-13T11:10:56.704Z,3.23
2018-06-13T11:13:24.209Z,3.37
2018-06-13T11:15:52.407Z,3.23
2018-06-13T11:18:20.751Z,3.50
2018-06-13T11:20:49.335Z,2.13
2018-06-13T11:23:17.628Z,3.40
2018-06-13T11:25:45.263Z,2.80
2018-06-13T11:28:13.029Z,3.03
2018-06-13T11:30:40.588Z,2.90
2018-06-13T11:33:08.189Z,3.00
2018-06-13T11:35:36.361Z,3.83
2018-06-13T11:38:03.924Z,2.77
2018-06-13T11:40:31.634Z,2.80
2018-06-13T11:42:59.436Z,2.87
2018-06-13T11:45:27.191Z,3.23
2018-06-13T11:47:54.758Z,3.33
2018-06-13T11:50:22.761Z,3.20
2018-06-13T11:52:50.790Z,3.00
2018-06-13T11:55:18.668Z,2.77
2018-06-13T11:57:46.399Z,3.10
2018-06-13T12:00:15.429Z,3.33
2018-06-13T12:02:43.269Z,2.50
2018-06-13T12:05:11.828Z,3.27
2018-06-13T12:07:39.792Z,2.60
2018-06-13T12:10:07.458Z,2.73
2018-06-13T12:12:35.157Z,2.23
2018-06-13T12:15:02.734Z,2.77
2018-06-13T12:17:31.329Z,2.30
2018-06-13T12:19:59.928Z,2.97
2018-06-13T12:22:27.538Z,2.73
2018-06-13T12:24:56.021Z,3.50
2018-06-13T12:27:23.589Z,2.03
2018-06-13T12:29:52.595Z,2.60
2018-06-13T12:32:20.278Z,2.50
2018-06-13T12:34:49.025Z,3.10
2018-06-13T12:37:17.046Z,2.30
2018-06-13T12:39:44.829Z,2.20
2018-06-13T12:42:13.359Z,2.17
2018-06-13T12:44:44.780Z,3.40
2018-06-13T12:47:17.150Z,2.73
2018-06-13T12:49:47.140Z,2.67
2018-06-13T13:05:19.848Z,3.30
2018-06-13T13:07:47.714Z,3.20
2018-06-13T13:10:15.620Z,4.63
2018-06-13T13:12:45.183Z,3.07
2018-06-13T13:15:13.691Z,3.50
2018-06-13T13:17:42.252Z,2.93
2018-06-13T13:20:09.809Z,2.90
2018-06-13T13:22:37.388Z,2.83
2018-06-13T13:25:05.269Z,3.60
2018-06-13T13:27:32.866Z,3.10
2018-06-13T13:30:00.897Z,3.63
2018-06-13T13:32:28.459Z,3.07
2018-06-13T13:34:56.705Z,3.07
2018-06-13T13:37:25.300Z,2.83
2018-06-13T13:39:52.932Z,3.13
2018-06-13T13:42:20.592Z,3.40
2018-06-13T13:44:48.177Z,3.30
2018-06-13T13:47:15.718Z,3.57
2018-06-13T13:49:44.793Z,3.07
2018-06-13T13:52:13.013Z,2.50
2018-06-13T13:54:40.601Z,3.20
2018-06-13T13:57:08.348Z,3.30
2018-06-13T13:59:35.820Z,3.60
2018-06-13T14:02:03.519Z,2.93
2018-06-13T14:04:31.593Z,2.80
2018-06-13T14:06:59.954Z,4.13
2018-06-13T14:09:28.753Z,2.77
2018-06-13T14:21:46.763Z,2.40
2018-06-13T14:24:15.808Z,2.37
2018-06-13T14:26:43.487Z,1.97
2018-06-13T14:29:11.259Z,3.33
2018-06-13T14:31:39.474Z,2.90
2018-06-13T14:34:07.785Z,2.73
2018-06-13T14:36:35.998Z,2.60
2018-06-13T14:39:07.237Z,3.30
2018-06-13T14:41:36.865Z,2.83
2018-06-13T14:44:05.388Z,3.13
2018-06-13T14:46:33.992Z,3.60
2018-06-13T14:58:47.009Z,2.40
2018-06-13T15:01:17.610Z,2.20
2018-06-13T15:03:45.711Z,2.60
2018-06-13T15:06:13.260Z,2.80
2018-06-13T15:08:41.515Z,2.53
2018-06-13T15:11:11.130Z,3.50
2018-06-13T15:13:39.873Z,2.37
2018-06-13T15:16:07.426Z,2.53
2018-06-13T15:18:36.135Z,2.77
2018-06-13T15:21:06.955Z,3.73
2018-06-13T15:23:35.835Z,2.40
2018-06-13T15:26:04.625Z,2.60
2018-06-13T15:28:34.002Z,3.00
2018-06-13T15:31:01.546Z,2.40
2018-06-13T15:33:29.516Z,4.40
2018-06-13T15:35:58.469Z,2.03
2018-06-13T15:38:26.018Z,2.17
2018-06-13T15:40:54.227Z,2.47
2018-06-13T15:43:22.857Z,2.60
2018-06-13T15:45:50.660Z,2.60
2018-06-13T15:48:18.354Z,2.73
2018-06-13T15:50:46.496Z,2.40
2018-06-13T15:53:17.539Z,2.20
2018-06-13T15:55:45.399Z,3.17
2018-06-13T15:58:14.921Z,2.93
2018-06-13T16:00:43.108Z,2.60
2018-06-13T16:03:10.789Z,3.00
2018-06-13T16:05:39.346Z,2.47
2018-06-13T16:08:06.928Z,3.33
2018-06-13T16:10:34.595Z,2.80
2018-06-13T16:13:03.261Z,2.70
2018-06-13T16:15:33.676Z,4.53
2018-06-13T16:18:01.411Z,5.57
2018-06-13T16:20:29.169Z,5.50
2018-06-13T16:22:56.898Z,5.10
2018-06-13T16:25:24.496Z,4.43
2018-06-13T16:27:53.161Z,5.50
2018-06-13T16:30:21.656Z,6.70
2018-06-13T16:32:50.746Z,4.87
2018-06-13T16:35:18.284Z,4.90
2018-06-13T16:37:46.114Z,5.10
2018-06-13T16:40:14.854Z,4.50
2018-06-13T16:42:45.538Z,4.33
2018-06-13T16:45:13.142Z,5.80
2018-06-13T16:47:40.910Z,6.50
2018-06-13T16:50:19.873Z,6.10
2018-06-13T16:52:59.349Z,5.23
2018-06-13T16:55:30.316Z,5.70
2018-06-13T16:57:58.695Z,6.70
2018-06-13T17:00:28.223Z,6.17
2018-06-13T17:02:56.339Z,6.47
2018-06-13T17:05:24.512Z,4.80
2018-06-13T17:07:52.682Z,4.40
2018-06-13T17:10:22.489Z,4.70
2018-06-13T17:12:53.736Z,5.37
2018-06-13T17:15:25.628Z,4.20
2018-06-13T17:17:53.295Z,6.10
2018-06-13T17:20:21.448Z,4.90
2018-06-13T17:22:49.043Z,4.30
2018-06-13T17:25:16.599Z,4.57
2018-06-13T17:27:48.325Z,4.50
2018-06-13T17:30:18.772Z,4.67
2018-06-13T17:32:47.830Z,4.60
2018-06-13T17:35:15.588Z,4.00
2018-06-13T17:37:46.030Z,4.87
2018-06-13T17:40:13.882Z,4.50
2018-06-13T17:42:42.142Z,5.00
2018-06-13T17:45:10.583Z,3.90
2018-06-13T17:47:38.116Z,3.77
2018-06-13T17:50:08.177Z,4.60
2018-06-13T17:52:38.163Z,7.30
2018-06-13T17:55:06.401Z,4.47
2018-06-13T18:07:19.630Z,4.03
2018-06-13T18:09:48.211Z,3.63
2018-06-13T18:12:16.854Z,4.30
2018-06-13T18:14:44.301Z,4.10
2018-06-13T18:17:11.900Z,5.17
2018-06-13T18:19:39.362Z,3.93
2018-06-13T18:22:07.047Z,3.60
2018-06-13T18:24:34.710Z,3.73
2018-06-13T18:27:02.986Z,3.73
2018-06-13T18:29:30.676Z,3.83
2018-06-13T18:31:58.345Z,4.37
2018-06-13T18:34:26.764Z,4.80
2018-06-13T18:36:54.728Z,4.83
2018-06-13T18:39:23.755Z,4.20
2018-06-13T18:41:53.581Z,3.70
2018-06-13T18:44:21.144Z,4.37
2018-06-13T18:46:49.676Z,4.03
2018-06-13T18:49:21.327Z,4.17
2018-06-13T18:51:48.953Z,3.77
2018-06-13T18:54:16.488Z,5.53
2018-06-13T18:56:44.067Z,4.07
2018-06-13T18:59:11.578Z,4.30
2018-06-13T19:01:39.327Z,4.67
2018-06-13T19:04:07.606Z,4.87
2018-06-13T19:06:36.320Z,4.20
2018-06-13T19:09:08.400Z,4.70
2018-06-13T19:11:36.739Z,4.00
2018-06-13T19:14:05.291Z,4.20
2018-06-13T19:16:33.407Z,4.60
2018-06-13T19:19:01.356Z,4.87
2018-06-13T19:21:28.992Z,5.20
2018-06-13T19:23:57.975Z,5.10
2018-06-13T19:26:27.870Z,4.70
2018-06-13T19:28:57.291Z,4.77
2018-06-13T19:31:25.922Z,4.60
2018-06-13T19:33:54.507Z,5.90
2018-06-13T19:36:22.112Z,5.60
2018-06-13T19:38:51.284Z,5.30
2018-06-13T19:41:18.857Z,6.50
2018-06-13T19:43:47.240Z,5.80
2018-06-13T19:46:17.006Z,5.17
2018-06-13T19:48:46.495Z,4.90
2018-06-13T19:51:14.669Z,5.03
2018-06-13T19:53:47.862Z,5.27
2018-06-13T19:56:18.214Z,4.80
2018-06-13T19:58:45.884Z,5.10
2018-06-13T20:01:13.325Z,4.77
2018-06-13T20:13:33.021Z,4.20
2018-06-13T20:16:06.587Z,4.90
2018-06-13T20:18:39.751Z,5.10
2018-06-13T20:21:09.393Z,5.30
2018-06-13T20:23:36.958Z,5.20
2018-06-13T20:26:11.941Z,5.93
2018-06-13T20:28:46.943Z,5.40
2018-06-13T20:31:34.771Z,5.37
2018-06-13T20:34:02.501Z,5.37
2018-06-13T20:36:30.668Z,5.33
2018-06-13T20:38:58.932Z,5.80
2018-06-13T20:41:26.552Z,6.73
2018-06-13T20:43:54.833Z,6.00
2018-06-13T20:46:22.347Z,6.03
2018-06-13T20:48:53.122Z,6.70
2018-06-13T20:51:25.205Z,5.10
2018-06-13T20:53:53.619Z,5.90
2018-06-13T20:56:21.097Z,5.53
2018-06-13T20:58:49.239Z,4.63
2018-06-13T21:01:16.669Z,5.47
2018-06-13T21:03:46.320Z,5.53
2018-06-13T21:06:13.919Z,4.87
2018-06-13T21:08:44.184Z,7.00
2018-06-13T21:11:16.320Z,9.50
2018-06-13T21:13:45.338Z,6.47
2018-06-13T21:16:13.597Z,7.27
2018-06-13T21:18:41.646Z,5.40
2018-06-13T21:21:10.187Z,6.90
2018-06-13T21:23:37.745Z,6.00
2018-06-13T21:26:06.589Z,5.17
2018-06-13T21:28:34.060Z,6.77
2018-06-13T21:31:02.312Z,6.57
2018-06-13T21:33:29.915Z,5.80
2018-06-13T21:35:58.134Z,4.80
2018-06-13T21:38:25.657Z,5.10
2018-06-13T21:40:54.430Z,5.80
2018-06-13T21:43:21.938Z,5.43
2018-06-13T21:45:49.429Z,5.87
2018-06-13T21:48:17.146Z,7.37
2018-06-13T21:50:44.758Z,5.47
2018-06-13T21:53:13.184Z,5.13
2018-06-13T21:55:40.617Z,6.67
2018-06-13T21:58:08.237Z,5.90
2018-06-13T22:00:35.782Z,6.13
2018-06-13T22:03:03.290Z,5.10
2018-06-13T22:05:31.537Z,5.70
2018-06-13T22:08:02.009Z,6.43
2018-06-13T22:10:29.640Z,6.17
2018-06-13T22:12:57.222Z,5.70
2018-06-13T22:15:26.289Z,5.57
2018-06-13T22:17:56.266Z,6.10
2018-06-13T22:20:23.872Z,6.10
2018-06-13T22:22:51.449Z,6.10
2018-06-13T22:25:19.629Z,5.87
2018-06-13T22:27:47.878Z,4.87
2018-06-13T22:30:15.714Z,5.60
2018-06-13T22:32:44.517Z,5.20
2018-06-13T22:35:12.015Z,5.90
2018-06-13T22:37:39.540Z,5.90
2018-06-13T22:40:15.166Z,7.07
2018-06-13T22:42:48.254Z,6.93
2018-06-13T22:45:15.679Z,5.10
2018-06-13T22:47:44.627Z,5.40
2018-06-13T22:50:12.267Z,5.17
2018-06-13T22:52:41.105Z,5.40
2018-06-13T22:55:08.629Z,6.00
2018-06-13T22:57:36.365Z,5.67
2018-06-13T23:00:06.767Z,4.80
2018-06-13T23:02:34.435Z,5.40
2018-06-13T23:05:02.114Z,5.90
2018-06-13T23:07:29.694Z,5.50
2018-06-13T23:09:57.382Z,5.23
2018-06-13T23:12:25.810Z,4.93
2018-06-13T23:14:53.409Z,5.83
2018-06-13T23:17:21.027Z,5.50
2018-06-13T23:19:48.720Z,5.43
2018-06-13T23:22:16.829Z,5.37
2018-06-13T23:24:45.259Z,4.90
2018-06-13T23:27:12.867Z,5.70
2018-06-13T23:29:40.373Z,5.60
2018-06-13T23:32:09.000Z,5.67
2018-06-13T23:34:36.540Z,5.30
2018-06-13T23:37:04.658Z,5.00
2018-06-13T23:39:32.780Z,4.77
2018-06-13T23:42:00.196Z,5.70
2018-06-13T23:44:29.364Z,4.90
2018-06-13T23:46:56.921Z,4.50
2018-06-13T23:49:24.749Z,5.20
2018-06-13T23:51:52.168Z,5.00
2018-06-13T23:54:20.456Z,4.43
2018-06-13T23:56:48.071Z,5.03
2018-06-13T23:59:15.704Z,4.33
